MKJS 221300Z 12005KT 9999 FEW022 28/21 Q1013
MKJP 221300Z 35008KT 9999 SCT018 BKN032 28/21 Q1013
MWCR 221300Z 08008KT 9999 FEW018 30/25 Q1013
MWCB 221300Z 10011KT 9999 SCT016 30/24 Q1014